createdAt,value
2022-12-06T00:01:07.385Z,11.80
2022-12-06T00:03:35.002Z,12.40
2022-12-06T00:06:10.041Z,11.60
2022-12-06T00:08:37.465Z,11.00
2022-12-06T00:11:06.516Z,11.50
2022-12-06T00:13:33.416Z,10.77
2022-12-06T00:16:04.645Z,11.43
2022-12-06T00:18:35.917Z,11.55
2022-12-06T00:21:28.555Z,10.55
2022-12-06T00:24:06.769Z,10.77
2022-12-06T00:26:36.867Z,11.38
2022-12-06T00:29:04.209Z,11.82
2022-12-06T00:31:32.295Z,11.13
2022-12-06T00:33:59.079Z,10.52
2022-12-06T00:36:32.799Z,11.55
2022-12-06T00:39:01.210Z,12.18
2022-12-06T00:41:28.523Z,11.45
2022-12-06T00:43:55.286Z,12.00
2022-12-06T00:46:29.721Z,12.20
2022-12-06T00:48:58.240Z,12.32
2022-12-06T00:51:27.064Z,12.32
2022-12-06T00:53:53.974Z,12.25
2022-12-06T00:56:20.947Z,13.48
2022-12-06T00:58:48.037Z,13.15
2022-12-06T01:01:21.815Z,12.48
2022-12-06T01:03:53.499Z,12.13
2022-12-06T01:06:23.186Z,12.10
2022-12-06T01:08:50.336Z,12.35
2022-12-06T01:11:17.124Z,11.43
2022-12-06T01:13:44.477Z,11.65
2022-12-06T01:16:14.211Z,12.73
2022-12-06T01:18:41.765Z,12.77
2022-12-06T01:21:11.356Z,12.35
2022-12-06T01:23:38.345Z,11.93
2022-12-06T01:26:06.667Z,11.73
2022-12-06T01:28:33.846Z,11.73
2022-12-06T01:31:00.584Z,10.95
2022-12-06T01:33:27.301Z,10.63
2022-12-06T01:35:56.504Z,11.27
2022-12-06T01:38:23.208Z,10.10
2022-12-06T01:40:50.370Z,10.30
2022-12-06T01:43:41.030Z,10.43
2022-12-06T01:46:16.631Z,10.57
2022-12-06T01:48:48.160Z,10.45
2022-12-06T01:51:17.916Z,10.15
2022-12-06T01:53:47.230Z,9.68
2022-12-06T01:56:14.209Z,11.13
2022-12-06T01:58:44.478Z,11.32
2022-12-06T02:01:11.292Z,10.75
2022-12-06T02:03:38.319Z,10.32
2022-12-06T02:06:06.751Z,11.40
2022-12-06T02:08:34.313Z,11.32
2022-12-06T02:11:02.886Z,10.93
2022-12-06T02:13:31.037Z,11.65
2022-12-06T02:16:12.609Z,10.35
2022-12-06T02:18:49.790Z,11.98
2022-12-06T02:21:25.776Z,12.52
2022-12-06T02:23:58.184Z,11.48
2022-12-06T02:26:25.047Z,12.00
2022-12-06T02:29:21.755Z,12.55
2022-12-06T02:32:03.299Z,13.80
2022-12-06T02:35:10.497Z,13.07
2022-12-06T02:37:48.208Z,11.98
2022-12-06T02:40:20.325Z,13.23
2022-12-06T02:42:54.294Z,12.88
2022-12-06T02:45:25.344Z,13.50
2022-12-06T02:47:52.852Z,12.57
2022-12-06T02:50:30.445Z,12.25
2022-12-06T02:52:59.658Z,13.50
2022-12-06T02:55:26.949Z,13.60
2022-12-06T02:57:54.786Z,12.88
2022-12-06T03:00:33.741Z,12.38
2022-12-06T03:03:36.403Z,13.40
2022-12-06T03:06:03.093Z,12.60
2022-12-06T03:08:43.170Z,11.40
2022-12-06T03:11:10.148Z,12.40
2022-12-06T03:13:56.249Z,11.25
2022-12-06T03:17:01.640Z,12.10
2022-12-06T03:19:29.688Z,11.20
2022-12-06T03:22:12.441Z,11.00
2022-12-06T03:24:40.666Z,10.02
2022-12-06T03:27:13.243Z,9.70
2022-12-06T03:29:48.431Z,8.68
2022-12-06T03:32:17.383Z,8.63
2022-12-06T03:34:47.458Z,8.65
2022-12-06T03:37:18.322Z,8.40
2022-12-06T03:40:06.537Z,8.82
2022-12-06T03:42:33.657Z,9.13
2022-12-06T03:45:01.085Z,8.77
2022-12-06T03:47:32.812Z,7.95
2022-12-06T03:50:05.544Z,9.20
2022-12-06T03:52:33.662Z,8.48
2022-12-06T03:55:00.274Z,8.80
2022-12-06T03:57:27.003Z,8.68
2022-12-06T03:59:54.874Z,8.73
2022-12-06T04:02:21.452Z,7.60
2022-12-06T04:04:49.517Z,8.55
2022-12-06T04:07:21.384Z,8.63
2022-12-06T04:09:55.207Z,7.15
2022-12-06T04:12:41.631Z,6.93
2022-12-06T04:15:09.431Z,6.40
2022-12-06T04:17:57.602Z,7.60
2022-12-06T04:20:25.357Z,7.05
2022-12-06T04:23:03.907Z,6.97
2022-12-06T04:25:35.867Z,7.05
2022-12-06T04:28:22.172Z,8.45
2022-12-06T04:31:09.798Z,7.85
2022-12-06T04:33:55.593Z,8.02
2022-12-06T04:36:40.618Z,7.28
2022-12-06T04:39:07.480Z,6.20
2022-12-06T04:41:53.688Z,6.55
2022-12-06T04:44:20.445Z,6.05
2022-12-06T04:46:47.077Z,6.70
2022-12-06T04:49:13.851Z,5.78
2022-12-06T04:51:40.455Z,6.47
2022-12-06T04:54:07.369Z,6.85
2022-12-06T04:56:34.223Z,5.95
2022-12-06T04:59:00.881Z,5.40
2022-12-06T05:01:27.514Z,5.40
2022-12-06T05:03:54.275Z,5.35
2022-12-06T05:06:21.069Z,5.13
2022-12-06T05:08:47.757Z,5.13
2022-12-06T05:11:14.605Z,5.25
2022-12-06T05:13:41.213Z,5.60
2022-12-06T05:16:08.524Z,5.18
2022-12-06T05:18:36.085Z,5.80
2022-12-06T05:21:04.076Z,6.35
2022-12-06T05:23:30.784Z,5.60
2022-12-06T05:25:59.669Z,8.25
2022-12-06T05:28:26.333Z,5.68
2022-12-06T05:30:53.036Z,6.45
2022-12-06T05:33:20.097Z,5.85
2022-12-06T05:35:46.738Z,5.57
2022-12-06T05:38:14.147Z,5.20
2022-12-06T05:40:41.918Z,6.50
2022-12-06T05:43:09.477Z,6.07
2022-12-06T05:45:37.580Z,5.43
2022-12-06T05:48:05.291Z,6.07
2022-12-06T05:50:31.951Z,6.20
2022-12-06T05:53:00.047Z,4.78
2022-12-06T05:55:27.294Z,5.28
2022-12-06T05:57:54.249Z,5.25
2022-12-06T06:00:21.645Z,6.00
2022-12-06T06:02:48.610Z,6.47
2022-12-06T06:05:15.486Z,6.10
2022-12-06T06:07:42.167Z,6.13
2022-12-06T06:10:09.282Z,6.70
2022-12-06T06:12:35.969Z,6.22
2022-12-06T06:15:05.317Z,6.43
2022-12-06T06:17:32.033Z,6.10
2022-12-06T06:19:59.171Z,6.05
2022-12-06T06:22:25.981Z,6.22
2022-12-06T06:24:52.794Z,5.85
2022-12-06T06:27:19.400Z,6.05
2022-12-06T06:29:46.078Z,6.55
2022-12-06T06:32:13.888Z,6.10
2022-12-06T06:34:40.678Z,6.28
2022-12-06T06:37:07.396Z,6.07
2022-12-06T06:39:34.359Z,6.13
2022-12-06T06:42:01.024Z,5.93
2022-12-06T06:44:27.668Z,6.03
2022-12-06T06:46:54.429Z,6.05
2022-12-06T06:49:21.943Z,5.43
2022-12-06T06:51:48.800Z,6.15
2022-12-06T06:54:15.831Z,5.65
2022-12-06T06:56:42.535Z,6.18
2022-12-06T06:59:12.141Z,5.57
2022-12-06T07:01:38.856Z,4.97
2022-12-06T07:04:08.110Z,5.93
2022-12-06T07:06:34.747Z,5.82
2022-12-06T07:09:01.486Z,5.35
2022-12-06T07:11:28.107Z,5.25
2022-12-06T07:13:54.782Z,5.57
2022-12-06T07:16:22.126Z,6.35
2022-12-06T07:18:48.936Z,5.50
2022-12-06T07:21:16.637Z,5.45
2022-12-06T07:23:43.507Z,5.35
2022-12-06T07:26:15.224Z,5.38
2022-12-06T07:28:43.639Z,5.75
2022-12-06T07:31:11.931Z,5.65
2022-12-06T07:33:41.671Z,5.53
2022-12-06T07:36:12.373Z,5.88
2022-12-06T07:38:47.360Z,5.55
2022-12-06T07:41:35.873Z,6.28
2022-12-06T07:44:21.182Z,6.10
2022-12-06T07:46:48.440Z,5.53
2022-12-06T07:49:16.590Z,5.70
2022-12-06T07:51:44.383Z,5.25
2022-12-06T07:54:11.162Z,5.40
2022-12-06T07:56:37.905Z,5.10
2022-12-06T07:59:04.662Z,5.43
2022-12-06T08:01:31.572Z,4.82
2022-12-06T08:04:02.368Z,5.32
2022-12-06T08:06:30.738Z,5.72
2022-12-06T08:08:57.531Z,4.60
2022-12-06T08:11:24.596Z,5.72
2022-12-06T08:13:51.586Z,5.25
2022-12-06T08:16:18.478Z,5.45
2022-12-06T08:18:46.408Z,4.75
2022-12-06T08:21:13.492Z,4.95
2022-12-06T08:23:40.070Z,4.82
2022-12-06T08:26:08.990Z,4.57
2022-12-06T08:28:36.997Z,4.78
2022-12-06T08:31:08.552Z,4.40
2022-12-06T08:33:36.011Z,4.00
2022-12-06T08:36:09.051Z,4.45
2022-12-06T08:38:37.551Z,4.70
2022-12-06T08:41:05.193Z,4.40
2022-12-06T08:43:32.346Z,4.63
2022-12-06T08:46:01.198Z,4.72
2022-12-06T08:48:28.069Z,5.07
2022-12-06T08:50:54.837Z,4.03
2022-12-06T08:53:21.764Z,4.55
2022-12-06T08:56:02.772Z,4.30
2022-12-06T08:58:30.313Z,4.32
2022-12-06T09:00:57.196Z,4.20
2022-12-06T09:03:24.185Z,4.57
2022-12-06T09:05:50.867Z,3.75
2022-12-06T09:08:17.604Z,3.50
2022-12-06T09:10:44.607Z,4.15
2022-12-06T09:13:11.240Z,4.45
2022-12-06T09:15:39.008Z,3.80
2022-12-06T09:18:05.857Z,3.83
2022-12-06T09:20:32.549Z,3.80
2022-12-06T09:22:59.239Z,3.50
2022-12-06T09:25:25.912Z,3.70
2022-12-06T09:27:53.226Z,3.40
2022-12-06T09:30:22.966Z,3.35
2022-12-06T09:32:49.773Z,3.08
2022-12-06T09:35:20.840Z,3.90
2022-12-06T09:37:50.493Z,3.85
2022-12-06T09:40:31.736Z,3.75
2022-12-06T09:43:26.129Z,3.45
2022-12-06T09:46:17.407Z,3.95
2022-12-06T09:48:54.619Z,3.58
2022-12-06T09:52:12.334Z,4.18
2022-12-06T09:54:39.144Z,3.72
2022-12-06T09:57:12.427Z,3.95
2022-12-06T09:59:52.394Z,3.67
2022-12-06T10:02:56.078Z,3.47
2022-12-06T10:05:28.410Z,4.10
2022-12-06T10:08:16.885Z,4.07
2022-12-06T10:10:46.426Z,4.30
2022-12-06T10:13:24.959Z,4.25
2022-12-06T10:15:51.801Z,4.28
2022-12-06T10:18:28.290Z,4.00
2022-12-06T10:20:59.605Z,4.45
2022-12-06T10:24:00.097Z,4.30
2022-12-06T10:26:52.606Z,3.65
2022-12-06T10:29:27.397Z,3.95
2022-12-06T10:32:00.929Z,4.63
2022-12-06T10:34:49.473Z,4.32
2022-12-06T10:37:43.970Z,4.13
2022-12-06T10:40:18.712Z,3.97
2022-12-06T10:42:51.390Z,4.28
2022-12-06T10:45:53.386Z,4.00
2022-12-06T10:48:37.157Z,4.45
2022-12-06T10:51:15.002Z,4.57
2022-12-06T10:53:48.295Z,4.43
2022-12-06T10:56:24.558Z,4.18
2022-12-06T10:58:58.885Z,4.95
2022-12-06T11:01:28.618Z,5.03
2022-12-06T11:04:11.459Z,5.05
2022-12-06T11:06:51.439Z,6.05
2022-12-06T11:09:52.042Z,5.25
2022-12-06T11:12:31.222Z,5.30
2022-12-06T11:15:21.876Z,6.13
2022-12-06T11:17:52.446Z,5.50
2022-12-06T11:20:32.706Z,6.18
2022-12-06T11:23:06.925Z,5.45
2022-12-06T11:26:04.814Z,5.30
2022-12-06T11:28:31.471Z,5.22
2022-12-06T11:30:58.698Z,5.47
2022-12-06T11:33:34.030Z,5.68
2022-12-06T11:36:04.275Z,4.82
2022-12-06T11:38:31.662Z,5.65
2022-12-06T11:41:01.933Z,5.40
2022-12-06T11:43:32.591Z,5.05
2022-12-06T11:45:59.449Z,4.70
2022-12-06T11:48:28.904Z,4.43
2022-12-06T11:50:55.645Z,4.47
2022-12-06T11:53:40.957Z,4.72
2022-12-06T11:56:23.744Z,4.03
2022-12-06T11:59:01.778Z,3.53
2022-12-06T12:01:43.900Z,3.78
2022-12-06T12:04:25.490Z,3.53
2022-12-06T12:07:19.667Z,4.25
2022-12-06T12:09:46.408Z,4.15
2022-12-06T12:12:46.723Z,3.05
2022-12-06T12:15:18.796Z,3.58
2022-12-06T12:17:48.082Z,2.38
2022-12-06T12:20:29.540Z,3.20
2022-12-06T12:23:19.111Z,3.20
2022-12-06T12:26:11.992Z,2.70
2022-12-06T12:28:40.028Z,2.80
2022-12-06T12:31:19.948Z,3.00
2022-12-06T12:33:47.052Z,2.30
2022-12-06T12:36:26.457Z,2.95
2022-12-06T12:38:59.012Z,3.00
2022-12-06T12:41:29.486Z,3.03
2022-12-06T12:44:28.532Z,2.78
2022-12-06T12:46:58.238Z,3.00
2022-12-06T12:49:30.856Z,3.30
2022-12-06T12:51:58.825Z,3.00
2022-12-06T12:54:33.764Z,2.40
2022-12-06T12:57:03.018Z,3.03
2022-12-06T12:59:37.884Z,2.88
2022-12-06T13:02:24.437Z,3.05
2022-12-06T13:05:11.099Z,3.10
2022-12-06T13:07:42.726Z,2.40
2022-12-06T13:10:18.704Z,2.75
2022-12-06T13:12:48.774Z,2.70
2022-12-06T13:15:31.454Z,2.90
2022-12-06T13:18:07.575Z,3.08
2022-12-06T13:20:34.820Z,2.53
2022-12-06T13:23:11.409Z,2.97
2022-12-06T13:25:38.231Z,3.08
2022-12-06T13:28:07.248Z,3.17
2022-12-06T13:30:36.042Z,3.75
2022-12-06T13:33:40.306Z,3.10
2022-12-06T13:36:10.183Z,3.40
2022-12-06T13:38:38.735Z,3.60
2022-12-06T13:41:12.918Z,3.42
2022-12-06T13:43:40.221Z,3.55
2022-12-06T13:46:07.308Z,3.10
2022-12-06T13:48:35.101Z,3.70
2022-12-06T13:51:08.012Z,2.95
2022-12-06T13:54:04.130Z,3.35
2022-12-06T13:56:33.683Z,3.22
2022-12-06T13:59:15.187Z,3.25
2022-12-06T14:01:56.938Z,3.95
2022-12-06T14:07:02.904Z,3.38
2022-12-06T14:09:48.312Z,3.55
2022-12-06T14:12:27.924Z,3.30
2022-12-06T14:14:58.845Z,3.80
2022-12-06T14:17:59.760Z,3.15
2022-12-06T14:20:23.420Z,3.60
2022-12-06T14:22:50.321Z,3.35
2022-12-06T14:25:17.277Z,3.03
2022-12-06T14:27:46.743Z,3.60
2022-12-06T14:30:13.263Z,3.55
2022-12-06T14:32:45.385Z,3.95
2022-12-06T14:35:16.408Z,3.55
2022-12-06T14:38:25.524Z,3.28
2022-12-06T14:41:11.280Z,3.53
2022-12-06T14:43:38.689Z,3.90
2022-12-06T14:46:13.288Z,4.05
2022-12-06T14:48:58.778Z,3.85
2022-12-06T14:51:38.181Z,3.60
2022-12-06T14:54:33.119Z,3.67
2022-12-06T14:57:01.674Z,3.55
2022-12-06T15:00:10.991Z,3.35
2022-12-06T15:02:26.448Z,3.88
2022-12-06T15:04:53.196Z,3.67
2022-12-06T15:07:41.297Z,3.60
2022-12-06T15:10:18.515Z,4.13
2022-12-06T15:12:57.428Z,3.75
2022-12-06T15:15:34.537Z,3.92
2022-12-06T15:18:14.235Z,3.42
2022-12-06T15:20:40.967Z,4.30
2022-12-06T15:23:25.786Z,4.00
2022-12-06T15:25:52.597Z,4.20
2022-12-06T15:28:20.139Z,4.60
2022-12-06T15:30:47.146Z,3.63
2022-12-06T15:33:19.200Z,3.40
2022-12-06T15:35:46.134Z,3.95
2022-12-06T15:38:13.161Z,3.92
2022-12-06T15:40:45.145Z,3.08
2022-12-06T15:43:30.400Z,4.25
2022-12-06T15:46:00.594Z,3.85
2022-12-06T15:48:29.060Z,3.88
2022-12-06T15:50:56.728Z,3.63
2022-12-06T15:53:24.893Z,3.78
2022-12-06T15:55:52.105Z,3.85
2022-12-06T15:58:19.304Z,3.70
2022-12-06T16:00:47.129Z,4.05
2022-12-06T16:03:13.914Z,3.90
2022-12-06T16:05:41.739Z,3.85
2022-12-06T16:08:08.507Z,3.65
2022-12-06T16:11:03.431Z,3.92
2022-12-06T16:13:23.916Z,4.45
2022-12-06T16:15:52.254Z,4.53
2022-12-06T16:18:19.985Z,4.38
2022-12-06T16:20:47.172Z,4.72
2022-12-06T16:24:04.754Z,4.82
2022-12-06T16:26:21.949Z,4.70
2022-12-06T16:28:48.595Z,4.85
2022-12-06T16:31:15.667Z,4.60
2022-12-06T16:33:42.528Z,4.47
2022-12-06T16:36:14.790Z,4.70
2022-12-06T16:38:41.506Z,3.85
2022-12-06T16:41:19.677Z,4.43
2022-12-06T16:43:46.474Z,4.40
2022-12-06T16:46:24.348Z,4.25
2022-12-06T16:49:02.605Z,3.55
2022-12-06T16:51:37.389Z,4.18
2022-12-06T16:54:04.516Z,3.80
2022-12-06T16:56:31.682Z,4.32
2022-12-06T16:58:58.612Z,3.90
2022-12-06T17:01:28.316Z,3.35
2022-12-06T17:03:59.385Z,3.65
2022-12-06T17:06:27.497Z,3.95
2022-12-06T17:08:58.644Z,3.20
2022-12-06T17:11:50.353Z,3.80
2022-12-06T17:14:20.537Z,3.13
2022-12-06T17:16:47.269Z,3.53
2022-12-06T17:19:18.385Z,3.13
2022-12-06T17:21:46.087Z,3.60
2022-12-06T17:24:13.749Z,3.67
2022-12-06T17:26:40.557Z,3.72
2022-12-06T17:29:07.552Z,3.72
2022-12-06T17:31:34.969Z,3.97
2022-12-06T17:34:07.902Z,2.97
2022-12-06T17:36:35.676Z,4.13
2022-12-06T17:39:04.670Z,4.25
2022-12-06T17:41:51.995Z,4.82
2022-12-06T17:44:19.240Z,4.53
2022-12-06T17:46:46.330Z,4.93
2022-12-06T17:49:14.929Z,5.20
2022-12-06T17:51:42.163Z,5.30
2022-12-06T17:54:09.580Z,5.57
2022-12-06T17:56:41.459Z,6.03
2022-12-06T17:59:10.794Z,6.13
2022-12-06T18:02:06.086Z,5.43
2022-12-06T18:04:25.056Z,6.03
2022-12-06T18:06:51.683Z,6.40
2022-12-06T18:09:18.258Z,6.30
2022-12-06T18:11:45.379Z,6.45
2022-12-06T18:14:12.891Z,6.50
2022-12-06T18:16:41.299Z,6.57
2022-12-06T18:19:11.477Z,6.22
2022-12-06T18:21:38.519Z,6.88
2022-12-06T18:24:21.527Z,6.20
2022-12-06T18:26:49.370Z,7.18
2022-12-06T18:29:18.810Z,6.65
2022-12-06T18:31:45.958Z,7.05
2022-12-06T18:34:13.394Z,7.80
2022-12-06T18:36:40.763Z,7.57
2022-12-06T18:39:14.396Z,6.65
2022-12-06T18:41:41.745Z,6.95
2022-12-06T18:44:09.714Z,7.45
2022-12-06T18:46:38.120Z,8.05
2022-12-06T18:49:05.205Z,7.75
2022-12-06T18:51:38.039Z,7.53
2022-12-06T18:54:05.292Z,7.25
2022-12-06T18:56:35.609Z,7.60
2022-12-06T18:59:05.370Z,7.47
2022-12-06T19:01:34.103Z,7.70
2022-12-06T19:04:03.512Z,8.07
2022-12-06T19:06:32.621Z,7.25
2022-12-06T19:09:04.100Z,7.05
2022-12-06T19:11:31.311Z,7.13
2022-12-06T19:14:00.160Z,8.27
2022-12-06T19:16:28.574Z,7.95
2022-12-06T19:18:56.825Z,7.85
2022-12-06T19:21:24.071Z,8.70
2022-12-06T19:23:57.409Z,7.45
2022-12-06T19:26:25.271Z,8.25
2022-12-06T19:28:52.556Z,7.95
2022-12-06T19:31:21.852Z,9.68
2022-12-06T19:33:49.242Z,7.82
2022-12-06T19:36:28.823Z,8.25
2022-12-06T19:39:03.920Z,8.95
2022-12-06T19:41:31.303Z,8.88
2022-12-06T19:44:17.264Z,9.52
2022-12-06T19:46:45.316Z,7.88
2022-12-06T19:49:13.769Z,8.57
2022-12-06T19:51:42.372Z,8.43
2022-12-06T19:54:11.190Z,8.95
2022-12-06T19:56:39.569Z,8.75
2022-12-06T19:59:11.890Z,8.60
2022-12-06T20:01:44.079Z,8.85
2022-12-06T20:04:19.675Z,8.43
2022-12-06T20:06:46.372Z,8.20
2022-12-06T20:09:13.470Z,8.80
2022-12-06T20:12:00.095Z,9.73
2022-12-06T20:14:35.133Z,9.27
2022-12-06T20:17:02.992Z,8.10
2022-12-06T20:19:29.716Z,8.73
2022-12-06T20:21:56.581Z,8.93
2022-12-06T20:24:23.753Z,8.98
2022-12-06T20:26:52.274Z,8.23
2022-12-06T20:29:20.508Z,9.10
2022-12-06T20:31:50.047Z,8.27
2022-12-06T20:34:19.324Z,7.40
2022-12-06T20:36:46.170Z,8.20
2022-12-06T20:39:38.907Z,8.48
2022-12-06T20:42:07.046Z,7.93
2022-12-06T20:44:34.740Z,7.85
2022-12-06T20:47:01.563Z,8.45
2022-12-06T20:49:28.261Z,7.47
2022-12-06T20:51:55.253Z,6.75
2022-12-06T20:54:22.645Z,6.35
2022-12-06T20:56:51.983Z,6.10
2022-12-06T20:59:19.097Z,6.70
2022-12-06T21:01:45.941Z,6.40
2022-12-06T21:04:13.969Z,6.18
2022-12-06T21:06:41.017Z,4.88
2022-12-06T21:09:10.678Z,5.53
2022-12-06T21:11:37.730Z,4.47
2022-12-06T21:14:05.670Z,4.57
2022-12-06T21:16:33.430Z,4.47
2022-12-06T21:19:05.550Z,4.28
2022-12-06T21:21:36.286Z,3.83
2022-12-06T21:24:06.064Z,3.25
2022-12-06T21:26:32.838Z,2.65
2022-12-06T21:29:00.191Z,2.83
2022-12-06T21:31:29.203Z,2.80
2022-12-06T21:33:56.819Z,2.28
2022-12-06T21:36:24.496Z,2.40
2022-12-06T21:38:51.249Z,2.45
2022-12-06T21:41:18.099Z,2.35
2022-12-06T21:43:44.974Z,2.17
2022-12-06T21:46:17.998Z,2.20
2022-12-06T21:48:45.682Z,2.33
2022-12-06T21:51:14.446Z,2.00
2022-12-06T21:53:43.734Z,2.42
2022-12-06T21:56:15.259Z,1.80
2022-12-06T21:58:42.044Z,1.80
2022-12-06T22:01:13.816Z,1.83
2022-12-06T22:03:40.931Z,2.03
2022-12-06T22:06:12.441Z,2.60
2022-12-06T22:08:40.449Z,3.00
2022-12-06T22:11:14.887Z,3.42
2022-12-06T22:13:41.653Z,2.83
2022-12-06T22:16:10.077Z,3.70
2022-12-06T22:18:44.878Z,3.67
2022-12-06T22:21:17.933Z,3.95
2022-12-06T22:23:44.607Z,4.90
2022-12-06T22:26:14.563Z,5.63
2022-12-06T22:28:41.371Z,5.70
2022-12-06T22:31:10.459Z,6.88
2022-12-06T22:33:37.334Z,6.63
2022-12-06T22:36:04.398Z,7.53
2022-12-06T22:38:31.458Z,7.50
2022-12-06T22:40:59.591Z,8.15
2022-12-06T22:43:26.910Z,7.88
2022-12-06T22:45:53.547Z,7.93
2022-12-06T22:48:20.465Z,7.65
2022-12-06T22:50:47.923Z,8.65
2022-12-06T22:53:14.701Z,8.23
2022-12-06T22:55:41.474Z,7.82
2022-12-06T22:58:08.040Z,8.00
2022-12-06T23:00:35.020Z,8.90
2022-12-06T23:03:01.675Z,8.80
2022-12-06T23:05:28.691Z,7.97
2022-12-06T23:07:57.407Z,9.55
2022-12-06T23:10:24.008Z,9.43
2022-12-06T23:12:50.899Z,8.88
2022-12-06T23:15:17.887Z,8.77
2022-12-06T23:17:44.485Z,8.13
2022-12-06T23:20:11.593Z,8.98
2022-12-06T23:22:38.448Z,9.27
2022-12-06T23:25:06.380Z,7.95
2022-12-06T23:27:33.050Z,7.72
2022-12-06T23:30:00.157Z,7.38
2022-12-06T23:32:27.056Z,8.05
2022-12-06T23:34:53.695Z,8.07
2022-12-06T23:37:20.517Z,7.55
2022-12-06T23:39:47.176Z,6.80
2022-12-06T23:42:13.774Z,6.82
2022-12-06T23:44:40.617Z,7.00
2022-12-06T23:47:07.243Z,7.25
2022-12-06T23:49:33.983Z,8.30
2022-12-06T23:52:03.967Z,7.22
2022-12-06T23:54:30.577Z,7.47
2022-12-06T23:56:57.172Z,7.75
2022-12-06T23:59:23.820Z,7.43
